sensor_id;sensor_type;location;lat;lon;timestamp;temperature;humidity
81192;DHT22;70665;47.652;-2.730;2024-03-08T00:00:23;10.40;84.90
81192;DHT22;70665;47.652;-2.730;2024-03-08T00:02:49;10.30;85.50
81192;DHT22;70665;47.652;-2.730;2024-03-08T00:05:16;10.40;85.10
81192;DHT22;70665;47.652;-2.730;2024-03-08T00:07:43;10.30;85.20
81192;DHT22;70665;47.652;-2.730;2024-03-08T00:10:10;10.40;85.80
81192;DHT22;70665;47.652;-2.730;2024-03-08T00:12:41;10.30;85.80
81192;DHT22;70665;47.652;-2.730;2024-03-08T00:15:10;10.40;84.90
81192;DHT22;70665;47.652;-2.730;2024-03-08T00:17:36;10.40;85.00
81192;DHT22;70665;47.652;-2.730;2024-03-08T00:20:02;10.40;85.20
81192;DHT22;70665;47.652;-2.730;2024-03-08T00:22:37;10.40;84.40
81192;DHT22;70665;47.652;-2.730;2024-03-08T00:25:03;10.40;84.50
81192;DHT22;70665;47.652;-2.730;2024-03-08T00:27:30;10.40;85.20
81192;DHT22;70665;47.652;-2.730;2024-03-08T00:29:59;10.30;84.70
81192;DHT22;70665;47.652;-2.730;2024-03-08T00:32:24;10.30;85.00
81192;DHT22;70665;47.652;-2.730;2024-03-08T00:34:50;10.40;84.40
81192;DHT22;70665;47.652;-2.730;2024-03-08T00:37:23;10.40;83.90
81192;DHT22;70665;47.652;-2.730;2024-03-08T00:39:49;10.30;84.20
81192;DHT22;70665;47.652;-2.730;2024-03-08T00:42:15;10.30;84.10
81192;DHT22;70665;47.652;-2.730;2024-03-08T00:44:41;10.30;83.40
81192;DHT22;70665;47.652;-2.730;2024-03-08T00:47:07;10.30;84.40
81192;DHT22;70665;47.652;-2.730;2024-03-08T00:49:33;10.20;83.90
81192;DHT22;70665;47.652;-2.730;2024-03-08T00:51:58;10.20;84.10
81192;DHT22;70665;47.652;-2.730;2024-03-08T00:54:24;10.20;84.60
81192;DHT22;70665;47.652;-2.730;2024-03-08T00:56:50;10.10;84.60
81192;DHT22;70665;47.652;-2.730;2024-03-08T00:59:16;10.00;84.60
81192;DHT22;70665;47.652;-2.730;2024-03-08T01:01:41;10.10;84.80
81192;DHT22;70665;47.652;-2.730;2024-03-08T01:04:07;10.00;85.60
81192;DHT22;70665;47.652;-2.730;2024-03-08T01:06:34;10.00;85.50
81192;DHT22;70665;47.652;-2.730;2024-03-08T01:08:59;9.90;85.80
81192;DHT22;70665;47.652;-2.730;2024-03-08T01:11:25;9.90;86.20
81192;DHT22;70665;47.652;-2.730;2024-03-08T01:13:51;9.90;85.90
81192;DHT22;70665;47.652;-2.730;2024-03-08T01:16:16;9.90;86.10
81192;DHT22;70665;47.652;-2.730;2024-03-08T01:18:43;9.80;86.40
81192;DHT22;70665;47.652;-2.730;2024-03-08T01:21:09;9.80;86.70
81192;DHT22;70665;47.652;-2.730;2024-03-08T01:23:34;9.80;86.70
81192;DHT22;70665;47.652;-2.730;2024-03-08T01:26:00;9.80;86.40
81192;DHT22;70665;47.652;-2.730;2024-03-08T01:28:28;9.80;86.70
81192;DHT22;70665;47.652;-2.730;2024-03-08T01:30:53;9.80;86.10
81192;DHT22;70665;47.652;-2.730;2024-03-08T01:33:26;9.90;86.20
81192;DHT22;70665;47.652;-2.730;2024-03-08T01:35:52;10.00;86.70
81192;DHT22;70665;47.652;-2.730;2024-03-08T01:38:19;9.90;86.40
81192;DHT22;70665;47.652;-2.730;2024-03-08T01:40:46;10.00;86.50
81192;DHT22;70665;47.652;-2.730;2024-03-08T01:43:26;9.90;86.20
81192;DHT22;70665;47.652;-2.730;2024-03-08T01:45:58;9.90;85.80
81192;DHT22;70665;47.652;-2.730;2024-03-08T01:48:28;9.90;86.50
81192;DHT22;70665;47.652;-2.730;2024-03-08T01:50:55;9.90;86.10
81192;DHT22;70665;47.652;-2.730;2024-03-08T01:53:22;10.00;86.40
81192;DHT22;70665;47.652;-2.730;2024-03-08T01:55:48;9.90;85.70
81192;DHT22;70665;47.652;-2.730;2024-03-08T01:58:15;9.90;85.60
81192;DHT22;70665;47.652;-2.730;2024-03-08T02:00:44;10.00;86.00
81192;DHT22;70665;47.652;-2.730;2024-03-08T02:03:10;10.00;86.20
81192;DHT22;70665;47.652;-2.730;2024-03-08T02:05:36;10.00;85.70
81192;DHT22;70665;47.652;-2.730;2024-03-08T02:08:04;10.00;85.40
81192;DHT22;70665;47.652;-2.730;2024-03-08T02:10:33;10.10;85.40
81192;DHT22;70665;47.652;-2.730;2024-03-08T02:13:00;10.10;85.70
81192;DHT22;70665;47.652;-2.730;2024-03-08T02:15:26;10.10;84.90
81192;DHT22;70665;47.652;-2.730;2024-03-08T02:17:52;10.00;85.20
81192;DHT22;70665;47.652;-2.730;2024-03-08T02:20:19;10.10;85.10
81192;DHT22;70665;47.652;-2.730;2024-03-08T02:22:45;10.00;85.00
81192;DHT22;70665;47.652;-2.730;2024-03-08T02:25:11;9.90;85.00
81192;DHT22;70665;47.652;-2.730;2024-03-08T02:27:37;10.00;84.60
81192;DHT22;70665;47.652;-2.730;2024-03-08T02:30:03;10.00;85.00
81192;DHT22;70665;47.652;-2.730;2024-03-08T02:32:30;9.90;85.50
81192;DHT22;70665;47.652;-2.730;2024-03-08T02:34:58;9.90;85.60
81192;DHT22;70665;47.652;-2.730;2024-03-08T02:37:25;9.90;86.10
81192;DHT22;70665;47.652;-2.730;2024-03-08T02:39:51;9.90;86.10
81192;DHT22;70665;47.652;-2.730;2024-03-08T02:42:17;9.90;87.50
81192;DHT22;70665;47.652;-2.730;2024-03-08T02:44:43;9.80;87.10
81192;DHT22;70665;47.652;-2.730;2024-03-08T02:47:11;9.70;87.60
81192;DHT22;70665;47.652;-2.730;2024-03-08T02:49:37;9.80;87.20
81192;DHT22;70665;47.652;-2.730;2024-03-08T02:52:04;9.80;87.70
81192;DHT22;70665;47.652;-2.730;2024-03-08T02:54:30;9.70;87.80
81192;DHT22;70665;47.652;-2.730;2024-03-08T02:56:56;9.70;87.60
81192;DHT22;70665;47.652;-2.730;2024-03-08T02:59:21;9.70;88.30
81192;DHT22;70665;47.652;-2.730;2024-03-08T03:01:47;9.70;87.80
81192;DHT22;70665;47.652;-2.730;2024-03-08T03:04:13;9.70;87.70
81192;DHT22;70665;47.652;-2.730;2024-03-08T03:06:38;9.70;88.00
81192;DHT22;70665;47.652;-2.730;2024-03-08T03:09:04;9.70;88.90
81192;DHT22;70665;47.652;-2.730;2024-03-08T03:11:33;9.80;88.10
81192;DHT22;70665;47.652;-2.730;2024-03-08T03:13:58;9.80;88.50
81192;DHT22;70665;47.652;-2.730;2024-03-08T03:16:24;9.80;88.40
81192;DHT22;70665;47.652;-2.730;2024-03-08T03:18:49;9.80;88.10
81192;DHT22;70665;47.652;-2.730;2024-03-08T03:21:15;9.80;88.50
81192;DHT22;70665;47.652;-2.730;2024-03-08T03:23:41;9.80;88.70
81192;DHT22;70665;47.652;-2.730;2024-03-08T03:26:08;9.80;89.50
81192;DHT22;70665;47.652;-2.730;2024-03-08T03:28:36;9.90;88.60
81192;DHT22;70665;47.652;-2.730;2024-03-08T03:31:06;9.80;89.20
81192;DHT22;70665;47.652;-2.730;2024-03-08T03:33:32;9.80;89.10
81192;DHT22;70665;47.652;-2.730;2024-03-08T03:35:59;9.80;89.10
81192;DHT22;70665;47.652;-2.730;2024-03-08T03:38:26;9.70;89.40
81192;DHT22;70665;47.652;-2.730;2024-03-08T03:40:53;9.70;89.50
81192;DHT22;70665;47.652;-2.730;2024-03-08T03:43:23;9.80;88.80
81192;DHT22;70665;47.652;-2.730;2024-03-08T03:45:48;9.70;89.30
81192;DHT22;70665;47.652;-2.730;2024-03-08T03:48:14;9.80;89.40
81192;DHT22;70665;47.652;-2.730;2024-03-08T03:50:40;9.80;89.10
81192;DHT22;70665;47.652;-2.730;2024-03-08T03:53:05;9.80;89.00
81192;DHT22;70665;47.652;-2.730;2024-03-08T03:55:34;9.80;89.00
81192;DHT22;70665;47.652;-2.730;2024-03-08T03:57:59;9.80;89.70
81192;DHT22;70665;47.652;-2.730;2024-03-08T04:00:26;9.80;90.30
81192;DHT22;70665;47.652;-2.730;2024-03-08T04:02:52;9.80;90.20
81192;DHT22;70665;47.652;-2.730;2024-03-08T04:05:18;9.80;90.30
81192;DHT22;70665;47.652;-2.730;2024-03-08T04:07:43;9.80;91.20
81192;DHT22;70665;47.652;-2.730;2024-03-08T04:10:11;9.80;90.90
81192;DHT22;70665;47.652;-2.730;2024-03-08T04:12:37;9.80;91.70
81192;DHT22;70665;47.652;-2.730;2024-03-08T04:15:03;9.70;91.00
81192;DHT22;70665;47.652;-2.730;2024-03-08T04:17:30;9.70;91.30
81192;DHT22;70665;47.652;-2.730;2024-03-08T04:19:56;9.80;92.60
81192;DHT22;70665;47.652;-2.730;2024-03-08T04:22:22;9.80;92.80
81192;DHT22;70665;47.652;-2.730;2024-03-08T04:24:48;9.80;92.10
81192;DHT22;70665;47.652;-2.730;2024-03-08T04:27:14;9.80;91.70
81192;DHT22;70665;47.652;-2.730;2024-03-08T04:29:42;9.70;92.20
81192;DHT22;70665;47.652;-2.730;2024-03-08T04:32:10;9.80;92.40
81192;DHT22;70665;47.652;-2.730;2024-03-08T04:34:36;9.80;91.60
81192;DHT22;70665;47.652;-2.730;2024-03-08T04:37:02;9.80;91.80
81192;DHT22;70665;47.652;-2.730;2024-03-08T04:39:28;9.70;91.40
81192;DHT22;70665;47.652;-2.730;2024-03-08T04:41:55;9.80;92.20
81192;DHT22;70665;47.652;-2.730;2024-03-08T04:44:23;9.80;91.90
81192;DHT22;70665;47.652;-2.730;2024-03-08T04:46:50;9.70;92.20
81192;DHT22;70665;47.652;-2.730;2024-03-08T04:49:15;9.70;92.20
81192;DHT22;70665;47.652;-2.730;2024-03-08T04:51:41;9.70;92.60
81192;DHT22;70665;47.652;-2.730;2024-03-08T04:54:07;9.60;93.30
81192;DHT22;70665;47.652;-2.730;2024-03-08T04:56:32;9.60;92.20
81192;DHT22;70665;47.652;-2.730;2024-03-08T04:58:59;9.70;93.70
81192;DHT22;70665;47.652;-2.730;2024-03-08T05:01:24;9.60;93.20
81192;DHT22;70665;47.652;-2.730;2024-03-08T05:03:50;9.60;93.30
81192;DHT22;70665;47.652;-2.730;2024-03-08T05:06:16;9.60;95.00
81192;DHT22;70665;47.652;-2.730;2024-03-08T05:08:42;9.60;94.50
81192;DHT22;70665;47.652;-2.730;2024-03-08T05:11:07;9.60;95.10
81192;DHT22;70665;47.652;-2.730;2024-03-08T05:13:33;9.60;94.50
81192;DHT22;70665;47.652;-2.730;2024-03-08T05:16:03;9.60;94.70
81192;DHT22;70665;47.652;-2.730;2024-03-08T05:18:28;9.60;94.90
81192;DHT22;70665;47.652;-2.730;2024-03-08T05:20:54;9.70;94.80
81192;DHT22;70665;47.652;-2.730;2024-03-08T05:23:20;9.70;95.30
81192;DHT22;70665;47.652;-2.730;2024-03-08T05:25:46;9.60;96.30
81192;DHT22;70665;47.652;-2.730;2024-03-08T05:28:14;9.50;95.40
81192;DHT22;70665;47.652;-2.730;2024-03-08T05:30:40;9.70;95.80
81192;DHT22;70665;47.652;-2.730;2024-03-08T05:33:05;9.60;95.70
81192;DHT22;70665;47.652;-2.730;2024-03-08T05:35:31;9.60;95.40
81192;DHT22;70665;47.652;-2.730;2024-03-08T05:37:57;9.60;95.70
81192;DHT22;70665;47.652;-2.730;2024-03-08T05:40:23;9.60;96.20
81192;DHT22;70665;47.652;-2.730;2024-03-08T05:42:49;9.60;96.00
81192;DHT22;70665;47.652;-2.730;2024-03-08T05:45:15;9.60;96.00
81192;DHT22;70665;47.652;-2.730;2024-03-08T05:47:41;9.60;96.20
81192;DHT22;70665;47.652;-2.730;2024-03-08T05:50:08;9.60;95.30
81192;DHT22;70665;47.652;-2.730;2024-03-08T05:52:36;9.60;95.90
81192;DHT22;70665;47.652;-2.730;2024-03-08T05:55:03;9.70;95.70
81192;DHT22;70665;47.652;-2.730;2024-03-08T05:57:32;9.70;96.20
81192;DHT22;70665;47.652;-2.730;2024-03-08T05:59:58;9.70;95.70
81192;DHT22;70665;47.652;-2.730;2024-03-08T06:02:23;9.70;95.90
81192;DHT22;70665;47.652;-2.730;2024-03-08T06:04:49;9.70;94.80
81192;DHT22;70665;47.652;-2.730;2024-03-08T06:07:15;9.80;96.20
81192;DHT22;70665;47.652;-2.730;2024-03-08T06:09:43;9.70;95.70
81192;DHT22;70665;47.652;-2.730;2024-03-08T06:12:11;9.70;95.20
81192;DHT22;70665;47.652;-2.730;2024-03-08T06:14:37;9.70;95.40
81192;DHT22;70665;47.652;-2.730;2024-03-08T06:17:03;9.70;96.20
81192;DHT22;70665;47.652;-2.730;2024-03-08T06:19:32;9.70;96.00
81192;DHT22;70665;47.652;-2.730;2024-03-08T06:21:58;9.80;96.60
81192;DHT22;70665;47.652;-2.730;2024-03-08T06:24:24;9.70;96.70
81192;DHT22;70665;47.652;-2.730;2024-03-08T06:26:49;9.60;96.90
81192;DHT22;70665;47.652;-2.730;2024-03-08T06:29:15;9.70;97.20
81192;DHT22;70665;47.652;-2.730;2024-03-08T06:31:41;9.70;96.20
81192;DHT22;70665;47.652;-2.730;2024-03-08T06:34:06;9.70;96.90
81192;DHT22;70665;47.652;-2.730;2024-03-08T06:36:35;9.80;96.80
81192;DHT22;70665;47.652;-2.730;2024-03-08T06:39:03;9.70;96.60
81192;DHT22;70665;47.652;-2.730;2024-03-08T06:41:37;9.70;97.00
81192;DHT22;70665;47.652;-2.730;2024-03-08T06:44:03;9.80;96.60
81192;DHT22;70665;47.652;-2.730;2024-03-08T06:46:29;9.80;96.80
81192;DHT22;70665;47.652;-2.730;2024-03-08T06:48:54;9.90;97.30
81192;DHT22;70665;47.652;-2.730;2024-03-08T06:51:21;9.90;97.40
81192;DHT22;70665;47.652;-2.730;2024-03-08T06:53:47;9.90;97.50
81192;DHT22;70665;47.652;-2.730;2024-03-08T06:56:14;9.90;97.40
81192;DHT22;70665;47.652;-2.730;2024-03-08T06:58:40;9.90;97.70
81192;DHT22;70665;47.652;-2.730;2024-03-08T07:01:06;9.90;97.80
81192;DHT22;70665;47.652;-2.730;2024-03-08T07:03:33;10.00;98.00
81192;DHT22;70665;47.652;-2.730;2024-03-08T07:05:59;9.90;97.60
81192;DHT22;70665;47.652;-2.730;2024-03-08T07:08:25;9.90;98.20
81192;DHT22;70665;47.652;-2.730;2024-03-08T07:10:53;9.90;98.20
81192;DHT22;70665;47.652;-2.730;2024-03-08T07:13:18;10.00;97.90
81192;DHT22;70665;47.652;-2.730;2024-03-08T07:15:44;9.90;97.40
81192;DHT22;70665;47.652;-2.730;2024-03-08T07:18:11;10.00;98.70
81192;DHT22;70665;47.652;-2.730;2024-03-08T07:20:40;10.00;98.50
81192;DHT22;70665;47.652;-2.730;2024-03-08T07:23:06;10.10;97.50
81192;DHT22;70665;47.652;-2.730;2024-03-08T07:25:31;10.20;97.90
81192;DHT22;70665;47.652;-2.730;2024-03-08T07:27:57;10.20;97.90
81192;DHT22;70665;47.652;-2.730;2024-03-08T07:30:24;10.20;97.00
81192;DHT22;70665;47.652;-2.730;2024-03-08T07:33:08;10.30;95.50
81192;DHT22;70665;47.652;-2.730;2024-03-08T07:35:40;10.40;94.70
81192;DHT22;70665;47.652;-2.730;2024-03-08T07:38:08;10.40;94.80
81192;DHT22;70665;47.652;-2.730;2024-03-08T07:40:38;10.50;95.00
81192;DHT22;70665;47.652;-2.730;2024-03-08T07:43:09;10.40;94.30
81192;DHT22;70665;47.652;-2.730;2024-03-08T07:45:36;10.40;94.10
81192;DHT22;70665;47.652;-2.730;2024-03-08T07:48:02;10.50;94.40
81192;DHT22;70665;47.652;-2.730;2024-03-08T07:50:28;10.60;94.60
81192;DHT22;70665;47.652;-2.730;2024-03-08T07:52:54;10.50;93.30
81192;DHT22;70665;47.652;-2.730;2024-03-08T07:55:20;10.60;94.00
81192;DHT22;70665;47.652;-2.730;2024-03-08T07:57:49;10.60;93.20
81192;DHT22;70665;47.652;-2.730;2024-03-08T08:00:15;10.70;92.50
81192;DHT22;70665;47.652;-2.730;2024-03-08T08:02:44;10.70;92.60
81192;DHT22;70665;47.652;-2.730;2024-03-08T08:05:15;10.70;92.10
81192;DHT22;70665;47.652;-2.730;2024-03-08T08:07:44;10.80;91.90
81192;DHT22;70665;47.652;-2.730;2024-03-08T08:10:12;10.80;91.40
81192;DHT22;70665;47.652;-2.730;2024-03-08T08:12:50;10.80;91.00
81192;DHT22;70665;47.652;-2.730;2024-03-08T08:15:16;10.90;91.70
81192;DHT22;70665;47.652;-2.730;2024-03-08T08:17:46;10.90;90.90
81192;DHT22;70665;47.652;-2.730;2024-03-08T08:20:12;11.00;90.80
81192;DHT22;70665;47.652;-2.730;2024-03-08T08:22:41;11.10;90.20
81192;DHT22;70665;47.652;-2.730;2024-03-08T08:25:09;11.10;88.90
81192;DHT22;70665;47.652;-2.730;2024-03-08T08:27:38;11.20;88.90
81192;DHT22;70665;47.652;-2.730;2024-03-08T08:30:05;11.20;87.90
81192;DHT22;70665;47.652;-2.730;2024-03-08T08:32:35;11.30;86.90
81192;DHT22;70665;47.652;-2.730;2024-03-08T08:35:02;11.30;86.10
81192;DHT22;70665;47.652;-2.730;2024-03-08T08:37:28;11.40;85.80
81192;DHT22;70665;47.652;-2.730;2024-03-08T08:39:54;11.40;85.40
81192;DHT22;70665;47.652;-2.730;2024-03-08T08:42:19;11.50;85.40
81192;DHT22;70665;47.652;-2.730;2024-03-08T08:44:45;11.50;85.70
81192;DHT22;70665;47.652;-2.730;2024-03-08T08:47:11;11.50;84.90
81192;DHT22;70665;47.652;-2.730;2024-03-08T08:49:38;11.50;85.50
81192;DHT22;70665;47.652;-2.730;2024-03-08T08:52:04;11.60;85.40
81192;DHT22;70665;47.652;-2.730;2024-03-08T08:54:29;11.60;85.70
81192;DHT22;70665;47.652;-2.730;2024-03-08T08:56:56;11.70;84.90
81192;DHT22;70665;47.652;-2.730;2024-03-08T08:59:22;11.80;85.10
81192;DHT22;70665;47.652;-2.730;2024-03-08T09:01:50;11.80;84.70
81192;DHT22;70665;47.652;-2.730;2024-03-08T09:04:19;12.00;85.00
81192;DHT22;70665;47.652;-2.730;2024-03-08T09:06:44;12.20;84.00
81192;DHT22;70665;47.652;-2.730;2024-03-08T09:09:10;12.40;83.40
81192;DHT22;70665;47.652;-2.730;2024-03-08T09:11:38;12.50;83.10
81192;DHT22;70665;47.652;-2.730;2024-03-08T09:14:08;12.50;82.90
81192;DHT22;70665;47.652;-2.730;2024-03-08T09:16:34;12.80;82.70
81192;DHT22;70665;47.652;-2.730;2024-03-08T09:18:59;13.00;81.20
81192;DHT22;70665;47.652;-2.730;2024-03-08T09:21:25;13.00;81.10
81192;DHT22;70665;47.652;-2.730;2024-03-08T09:23:52;13.10;80.20
81192;DHT22;70665;47.652;-2.730;2024-03-08T09:26:18;13.20;80.00
81192;DHT22;70665;47.652;-2.730;2024-03-08T09:28:44;13.20;79.90
81192;DHT22;70665;47.652;-2.730;2024-03-08T09:31:11;13.20;80.00
81192;DHT22;70665;47.652;-2.730;2024-03-08T09:33:37;13.20;79.70
81192;DHT22;70665;47.652;-2.730;2024-03-08T09:36:05;13.20;80.30
81192;DHT22;70665;47.652;-2.730;2024-03-08T09:38:31;13.20;80.60
81192;DHT22;70665;47.652;-2.730;2024-03-08T09:40:57;13.20;81.00
81192;DHT22;70665;47.652;-2.730;2024-03-08T09:43:23;13.10;81.00
81192;DHT22;70665;47.652;-2.730;2024-03-08T09:45:49;13.00;81.20
81192;DHT22;70665;47.652;-2.730;2024-03-08T09:48:17;13.10;80.80
81192;DHT22;70665;47.652;-2.730;2024-03-08T09:50:44;13.10;81.50
81192;DHT22;70665;47.652;-2.730;2024-03-08T09:53:12;13.20;80.60
81192;DHT22;70665;47.652;-2.730;2024-03-08T09:55:38;13.20;80.70
81192;DHT22;70665;47.652;-2.730;2024-03-08T09:58:08;13.20;81.20
81192;DHT22;70665;47.652;-2.730;2024-03-08T10:00:54;13.40;81.00
81192;DHT22;70665;47.652;-2.730;2024-03-08T10:03:20;13.50;80.40
81192;DHT22;70665;47.652;-2.730;2024-03-08T10:05:46;13.60;80.20
81192;DHT22;70665;47.652;-2.730;2024-03-08T10:08:12;13.70;79.00
81192;DHT22;70665;47.652;-2.730;2024-03-08T10:10:39;13.70;78.80
81192;DHT22;70665;47.652;-2.730;2024-03-08T10:13:08;13.90;78.90
81192;DHT22;70665;47.652;-2.730;2024-03-08T10:15:35;14.00;78.40
81192;DHT22;70665;47.652;-2.730;2024-03-08T10:18:01;14.20;77.00
81192;DHT22;70665;47.652;-2.730;2024-03-08T10:20:32;14.20;77.50
81192;DHT22;70665;47.652;-2.730;2024-03-08T10:23:03;14.30;77.00
81192;DHT22;70665;47.652;-2.730;2024-03-08T10:25:31;14.30;76.70
81192;DHT22;70665;47.652;-2.730;2024-03-08T10:27:56;14.30;76.80
81192;DHT22;70665;47.652;-2.730;2024-03-08T10:30:22;14.20;76.90
81192;DHT22;70665;47.652;-2.730;2024-03-08T10:32:48;14.10;77.40
81192;DHT22;70665;47.652;-2.730;2024-03-08T10:35:14;14.10;77.60
81192;DHT22;70665;47.652;-2.730;2024-03-08T10:37:49;14.20;77.50
81192;DHT22;70665;47.652;-2.730;2024-03-08T10:40:19;14.40;77.30
81192;DHT22;70665;47.652;-2.730;2024-03-08T10:42:56;14.70;77.00
81192;DHT22;70665;47.652;-2.730;2024-03-08T10:45:34;15.00;75.80
81192;DHT22;70665;47.652;-2.730;2024-03-08T10:48:30;15.50;74.40
81192;DHT22;70665;47.652;-2.730;2024-03-08T10:51:00;15.60;73.40
81192;DHT22;70665;47.652;-2.730;2024-03-08T10:53:28;15.70;72.50
81192;DHT22;70665;47.652;-2.730;2024-03-08T10:55:57;15.60;72.30
81192;DHT22;70665;47.652;-2.730;2024-03-08T10:58:26;15.60;71.20
81192;DHT22;70665;47.652;-2.730;2024-03-08T11:00:53;15.70;72.80
81192;DHT22;70665;47.652;-2.730;2024-03-08T11:06:17;15.90;72.50
81192;DHT22;70665;47.652;-2.730;2024-03-08T11:08:44;15.90;72.50
81192;DHT22;70665;47.652;-2.730;2024-03-08T11:11:28;15.90;72.00
81192;DHT22;70665;47.652;-2.730;2024-03-08T11:13:58;16.00;71.50
81192;DHT22;70665;47.652;-2.730;2024-03-08T11:21:32;15.90;73.10
81192;DHT22;70665;47.652;-2.730;2024-03-08T11:24:06;15.90;73.30
81192;DHT22;70665;47.652;-2.730;2024-03-08T11:26:33;16.00;73.60
81192;DHT22;70665;47.652;-2.730;2024-03-08T11:32:12;16.10;73.10
81192;DHT22;70665;47.652;-2.730;2024-03-08T11:34:41;16.30;73.10
81192;DHT22;70665;47.652;-2.730;2024-03-08T11:37:13;16.30;72.30
81192;DHT22;70665;47.652;-2.730;2024-03-08T11:39:46;16.40;72.80
81192;DHT22;70665;47.652;-2.730;2024-03-08T11:42:15;16.40;71.60
81192;DHT22;70665;47.652;-2.730;2024-03-08T11:44:43;16.30;72.20
81192;DHT22;70665;47.652;-2.730;2024-03-08T11:47:10;16.20;72.60
81192;DHT22;70665;47.652;-2.730;2024-03-08T11:49:37;16.10;73.50
81192;DHT22;70665;47.652;-2.730;2024-03-08T11:52:03;16.00;73.80
81192;DHT22;70665;47.652;-2.730;2024-03-08T11:54:29;16.00;73.70
81192;DHT22;70665;47.652;-2.730;2024-03-08T11:56:59;15.80;74.50
81192;DHT22;70665;47.652;-2.730;2024-03-08T11:59:28;15.70;75.00
81192;DHT22;70665;47.652;-2.730;2024-03-08T12:02:04;15.50;76.80
81192;DHT22;70665;47.652;-2.730;2024-03-08T12:04:31;15.50;78.10
81192;DHT22;70665;47.652;-2.730;2024-03-08T12:07:00;15.40;77.90
81192;DHT22;70665;47.652;-2.730;2024-03-08T12:09:30;15.30;78.00
81192;DHT22;70665;47.652;-2.730;2024-03-08T12:11:57;15.30;78.90
81192;DHT22;70665;47.652;-2.730;2024-03-08T12:14:23;15.40;79.70
81192;DHT22;70665;47.652;-2.730;2024-03-08T12:16:51;15.30;79.70
81192;DHT22;70665;47.652;-2.730;2024-03-08T12:19:16;15.30;80.20
81192;DHT22;70665;47.652;-2.730;2024-03-08T12:21:42;15.30;81.00
81192;DHT22;70665;47.652;-2.730;2024-03-08T12:24:17;15.20;82.40
81192;DHT22;70665;47.652;-2.730;2024-03-08T12:26:46;15.10;83.00
81192;DHT22;70665;47.652;-2.730;2024-03-08T12:29:27;14.90;84.60
81192;DHT22;70665;47.652;-2.730;2024-03-08T12:31:58;14.70;85.40
81192;DHT22;70665;47.652;-2.730;2024-03-08T12:34:24;14.70;89.30
81192;DHT22;70665;47.652;-2.730;2024-03-08T12:36:50;14.70;93.30
81192;DHT22;70665;47.652;-2.730;2024-03-08T12:39:20;14.80;95.20
81192;DHT22;70665;47.652;-2.730;2024-03-08T12:41:55;15.10;95.90
81192;DHT22;70665;47.652;-2.730;2024-03-08T12:44:22;15.30;92.60
81192;DHT22;70665;47.652;-2.730;2024-03-08T12:46:48;15.70;94.10
81192;DHT22;70665;47.652;-2.730;2024-03-08T12:49:15;15.80;90.80
81192;DHT22;70665;47.652;-2.730;2024-03-08T12:51:44;15.70;89.80
81192;DHT22;70665;47.652;-2.730;2024-03-08T12:54:10;15.90;90.60
81192;DHT22;70665;47.652;-2.730;2024-03-08T12:56:35;16.00;90.70
81192;DHT22;70665;47.652;-2.730;2024-03-08T12:59:03;16.20;88.20
81192;DHT22;70665;47.652;-2.730;2024-03-08T13:01:30;16.50;83.40
81192;DHT22;70665;47.652;-2.730;2024-03-08T13:03:58;16.60;83.00
81192;DHT22;70665;47.652;-2.730;2024-03-08T13:06:28;16.70;81.50
81192;DHT22;70665;47.652;-2.730;2024-03-08T13:08:54;17.00;79.20
81192;DHT22;70665;47.652;-2.730;2024-03-08T13:11:21;17.10;78.70
81192;DHT22;70665;47.652;-2.730;2024-03-08T13:13:47;17.40;78.30
81192;DHT22;70665;47.652;-2.730;2024-03-08T13:16:13;18.50;73.30
81192;DHT22;70665;47.652;-2.730;2024-03-08T13:18:43;19.20;70.00
81192;DHT22;70665;47.652;-2.730;2024-03-08T13:21:09;19.60;67.90
81192;DHT22;70665;47.652;-2.730;2024-03-08T13:23:37;20.00;66.40
81192;DHT22;70665;47.652;-2.730;2024-03-08T13:26:09;20.00;64.40
81192;DHT22;70665;47.652;-2.730;2024-03-08T13:28:37;19.60;66.30
81192;DHT22;70665;47.652;-2.730;2024-03-08T13:31:04;19.30;66.70
81192;DHT22;70665;47.652;-2.730;2024-03-08T13:33:32;19.10;67.00
81192;DHT22;70665;47.652;-2.730;2024-03-08T13:36:01;19.00;67.40
81192;DHT22;70665;47.652;-2.730;2024-03-08T13:38:27;19.00;67.00
81192;DHT22;70665;47.652;-2.730;2024-03-08T13:40:53;18.70;67.10
81192;DHT22;70665;47.652;-2.730;2024-03-08T13:43:18;18.30;68.40
81192;DHT22;70665;47.652;-2.730;2024-03-08T13:45:44;17.70;69.30
81192;DHT22;70665;47.652;-2.730;2024-03-08T13:48:11;17.20;71.90
81192;DHT22;70665;47.652;-2.730;2024-03-08T13:50:38;16.90;73.40
81192;DHT22;70665;47.652;-2.730;2024-03-08T13:53:04;16.60;74.60
81192;DHT22;70665;47.652;-2.730;2024-03-08T13:55:29;16.40;75.90
81192;DHT22;70665;47.652;-2.730;2024-03-08T13:57:56;16.20;76.60
81192;DHT22;70665;47.652;-2.730;2024-03-08T14:00:22;16.10;77.40
81192;DHT22;70665;47.652;-2.730;2024-03-08T14:02:52;16.10;77.50
81192;DHT22;70665;47.652;-2.730;2024-03-08T14:05:19;16.00;78.00
81192;DHT22;70665;47.652;-2.730;2024-03-08T14:07:45;16.00;78.70
81192;DHT22;70665;47.652;-2.730;2024-03-08T14:10:12;15.90;78.00
81192;DHT22;70665;47.652;-2.730;2024-03-08T14:12:38;15.80;78.10
81192;DHT22;70665;47.652;-2.730;2024-03-08T14:15:05;15.80;79.20
81192;DHT22;70665;47.652;-2.730;2024-03-08T14:17:33;15.70;79.40
81192;DHT22;70665;47.652;-2.730;2024-03-08T14:19:58;15.60;79.60
81192;DHT22;70665;47.652;-2.730;2024-03-08T14:22:24;15.50;80.20
81192;DHT22;70665;47.652;-2.730;2024-03-08T14:24:50;15.60;80.40
81192;DHT22;70665;47.652;-2.730;2024-03-08T14:27:17;15.50;80.90
81192;DHT22;70665;47.652;-2.730;2024-03-08T14:29:44;15.40;80.80
81192;DHT22;70665;47.652;-2.730;2024-03-08T14:32:10;15.40;81.40
81192;DHT22;70665;47.652;-2.730;2024-03-08T14:34:35;15.50;81.50
81192;DHT22;70665;47.652;-2.730;2024-03-08T14:37:02;15.50;81.20
81192;DHT22;70665;47.652;-2.730;2024-03-08T14:39:31;15.40;82.50
81192;DHT22;70665;47.652;-2.730;2024-03-08T14:41:59;15.20;82.40
81192;DHT22;70665;47.652;-2.730;2024-03-08T14:44:25;15.20;83.60
81192;DHT22;70665;47.652;-2.730;2024-03-08T14:46:55;15.10;83.80
81192;DHT22;70665;47.652;-2.730;2024-03-08T14:49:22;15.10;84.20
81192;DHT22;70665;47.652;-2.730;2024-03-08T14:51:47;14.90;85.10
81192;DHT22;70665;47.652;-2.730;2024-03-08T14:54:13;14.80;85.50
81192;DHT22;70665;47.652;-2.730;2024-03-08T14:56:39;14.80;86.40
81192;DHT22;70665;47.652;-2.730;2024-03-08T14:59:08;14.80;86.00
81192;DHT22;70665;47.652;-2.730;2024-03-08T15:01:35;14.70;87.10
81192;DHT22;70665;47.652;-2.730;2024-03-08T15:04:04;14.70;86.70
81192;DHT22;70665;47.652;-2.730;2024-03-08T15:06:37;14.70;86.90
81192;DHT22;70665;47.652;-2.730;2024-03-08T15:09:04;14.70;88.10
81192;DHT22;70665;47.652;-2.730;2024-03-08T15:11:51;14.80;88.10
81192;DHT22;70665;47.652;-2.730;2024-03-08T15:14:17;14.70;87.30
81192;DHT22;70665;47.652;-2.730;2024-03-08T15:16:45;14.70;87.40
81192;DHT22;70665;47.652;-2.730;2024-03-08T15:19:13;14.70;87.10
81192;DHT22;70665;47.652;-2.730;2024-03-08T15:21:40;14.80;86.40
81192;DHT22;70665;47.652;-2.730;2024-03-08T15:24:08;14.70;86.60
81192;DHT22;70665;47.652;-2.730;2024-03-08T15:26:41;14.80;87.30
81192;DHT22;70665;47.652;-2.730;2024-03-08T15:29:08;14.80;86.80
81192;DHT22;70665;47.652;-2.730;2024-03-08T15:31:34;14.90;88.00
81192;DHT22;70665;47.652;-2.730;2024-03-08T15:34:00;14.90;87.80